createdAt,value
2018-03-06T05:27:05.386Z,4.00
2018-03-06T05:28:05.230Z,4.00
2018-03-06T05:29:58.503Z,4.00
2018-03-06T05:30:58.531Z,4.00
2018-03-06T07:45:25.020Z,60.00
2018-03-06T07:46:25.679Z,60.00
2018-03-06T07:47:46.710Z,64.00
2018-03-06T07:48:39.536Z,64.00
2018-03-06T09:16:35.306Z,208.00
2018-03-06T09:17:36.239Z,228.00
2018-03-06T09:19:27.438Z,260.00
2018-03-06T09:21:27.515Z,284.00
2018-03-06T09:22:27.336Z,292.00
2018-03-06T09:23:27.469Z,292.00
2018-03-06T09:24:27.513Z,296.00
2018-03-06T09:25:27.298Z,288.00
2018-03-06T09:26:27.550Z,288.00
2018-03-06T09:27:28.861Z,292.00
2018-03-06T09:28:31.980Z,292.00
2018-03-06T09:29:28.448Z,284.00
2018-03-06T09:30:27.359Z,272.00
2018-03-06T09:32:29.684Z,260.00
2018-03-06T09:33:27.985Z,256.00
2018-03-06T09:34:28.439Z,256.00
2018-03-06T09:35:27.419Z,264.00
2018-03-06T09:36:27.048Z,264.00
2018-03-06T09:37:27.243Z,272.00
2018-03-06T09:38:27.319Z,272.00
2018-03-06T09:39:29.262Z,268.00
2018-03-06T09:40:27.151Z,268.00
2018-03-06T09:41:28.062Z,280.00
2018-03-06T09:42:32.174Z,276.00
2018-03-06T09:43:27.211Z,268.00
2018-03-06T09:44:27.258Z,280.00
2018-03-06T09:45:27.658Z,284.00
2018-03-06T09:46:27.165Z,300.00
2018-03-06T09:47:30.594Z,320.00
2018-03-06T09:48:30.053Z,340.00
2018-03-06T09:49:28.132Z,348.00
2018-03-06T09:50:27.608Z,352.00
2018-03-06T09:51:27.137Z,356.00
2018-03-06T09:52:27.123Z,360.00
2018-03-06T09:53:28.614Z,356.00
2018-03-06T09:54:27.078Z,356.00
2018-03-06T09:55:27.040Z,356.00
2018-03-06T09:56:26.964Z,356.00
2018-03-06T09:57:27.081Z,356.00
2018-03-06T09:58:30.332Z,360.00
2018-03-06T10:00:26.812Z,352.00
2018-03-06T10:01:26.864Z,356.00
2018-03-06T10:03:27.464Z,340.00
2018-03-06T10:04:27.052Z,336.00
2018-03-06T10:05:26.954Z,332.00
2018-03-06T10:06:28.329Z,312.00
2018-03-06T10:08:27.932Z,284.00
2018-03-06T10:13:09.558Z,228.00
2018-03-06T10:13:57.306Z,164.00
2018-03-06T10:16:58.848Z,152.00
2018-03-06T11:30:47.140Z,84.00
2018-03-06T11:33:05.611Z,80.00
2018-03-06T11:33:39.049Z,80.00
2018-03-06T11:34:39.035Z,80.00
2018-03-06T11:35:39.099Z,76.00
2018-03-06T11:38:06.225Z,80.00
2018-03-06T11:38:42.727Z,80.00
2018-03-06T11:40:38.988Z,80.00
2018-03-06T11:41:38.898Z,76.00
2018-03-06T11:42:41.876Z,80.00
2018-03-06T11:43:48.861Z,76.00
2018-03-06T11:44:38.866Z,76.00
2018-03-06T11:45:38.806Z,76.00
2018-03-06T11:46:38.808Z,72.00
2018-03-06T11:47:42.348Z,72.00
2018-03-06T11:49:08.307Z,76.00
2018-03-06T11:57:53.633Z,88.00
2018-03-06T12:00:03.914Z,92.00
2018-03-06T12:01:03.662Z,92.00
2018-03-06T12:03:20.416Z,92.00
2018-03-06T12:05:12.426Z,92.00
2018-03-06T12:08:04.272Z,88.00
2018-03-06T12:09:04.135Z,88.00
2018-03-06T12:10:57.473Z,92.00
2018-03-06T12:11:57.178Z,92.00
2018-03-06T12:12:57.356Z,92.00
2018-03-06T12:15:01.056Z,92.00
2018-03-06T12:16:00.746Z,92.00
2018-03-06T12:16:57.967Z,96.00
2018-03-06T12:17:58.022Z,96.00
2018-03-06T12:18:57.459Z,100.00
2018-03-06T12:19:57.362Z,100.00
2018-03-06T12:23:57.398Z,100.00
2018-03-06T12:24:57.360Z,104.00
2018-03-06T12:28:57.386Z,104.00
2018-03-06T12:30:58.957Z,96.00
2018-03-06T12:32:57.312Z,76.00
2018-03-06T12:34:57.305Z,60.00
2018-03-06T12:35:58.331Z,64.00
2018-03-06T12:36:57.157Z,56.00
2018-03-06T12:38:58.124Z,56.00
2018-03-06T12:39:58.072Z,60.00
2018-03-06T12:40:57.396Z,56.00
2018-03-06T12:42:57.056Z,60.00
2018-03-06T12:43:57.321Z,60.00
2018-03-06T12:45:56.981Z,60.00
2018-03-06T12:47:56.874Z,60.00
2018-03-06T12:48:57.631Z,56.00
2018-03-06T12:49:57.070Z,56.00
2018-03-06T12:51:56.958Z,56.00
2018-03-06T12:52:57.261Z,60.00
2018-03-06T12:55:56.983Z,56.00
2018-03-06T12:57:56.862Z,56.00
2018-03-06T12:58:56.844Z,52.00
2018-03-06T12:59:56.820Z,56.00
2018-03-06T13:00:56.758Z,56.00
2018-03-06T13:01:56.821Z,52.00
2018-03-06T13:02:56.662Z,52.00
2018-03-06T13:03:56.821Z,52.00
2018-03-06T13:04:56.704Z,48.00
2018-03-06T13:05:56.834Z,48.00
2018-03-06T13:07:56.744Z,48.00
2018-03-06T13:09:56.351Z,48.00
2018-03-06T13:10:56.360Z,44.00
2018-03-06T13:11:56.610Z,28.00
2018-03-06T13:14:28.323Z,236.00
2018-03-06T13:15:29.883Z,596.00
2018-03-06T13:17:03.286Z,2612.00
2018-03-06T13:18:02.705Z,3776.00
